Weather at Mangkajang Airport

Public forecast

Using degrees Celsius for public forecast. Weather courtesy of forecast.io.

Closest aviation weather report (METAR) to Mangkajang Airport

Closest report is Juwata Airport, 79.9 nm (148.0 km) N. Retrieved 2021/10/23 04:30 UTC (21 minutes ago):

WAQQ 230430Z 22004KT 9999 SCT015 BKN160 29/24 Q1011 NOSIG

Closest aviation forecast (TAF) to Mangkajang Airport

Closest forecast is Kalimarau Airport, 21.0 nm (38.9 km) WNW. Retrieved 2021-10-23 00:00 UTC (5 hours ago):

TAF WAQT 222300Z 2300/2312 05005KT 8000 SCT015